Terminal Aerodrome Forecast
Issued by NWS Charleston, WV

Current Version | Previous Version | Graphics & Text | Print | Product List | Glossary On
Versions: 1 2 3 4 5 6 7 8 9 10 11 12 13 14 15 16 17 18 19 20 21
000
FTUS41 KRLX 271144
TAFHTS
TAF
KHTS 271144Z 2712/2812 VRB03KT 3/4SM BR BKN001
     FM271300 02004KT 4SM BR SCT010
     FM271400 02004KT P6SM SKC
     FM271800 04006KT P6SM SCT040
     FM272300 00000KT P6SM SKC
     FM280900 00000KT 2SM BR SCT001
     FM281000 00000KT 1/4SM FG VV001=

USA.gov is the U.S. government's official web portal to all federal, state and local government web resources and services.